createdAt,value
2022-08-14T00:01:46.254Z,2.00
2022-08-14T00:04:34.694Z,2.20
2022-08-14T00:07:09.216Z,1.98
2022-08-14T00:09:55.989Z,1.90
2022-08-14T00:12:24.917Z,1.90
2022-08-14T00:15:03.281Z,1.90
2022-08-14T00:17:31.454Z,1.83
2022-08-14T00:20:14.808Z,1.90
2022-08-14T00:22:57.903Z,1.80
2022-08-14T00:25:41.597Z,1.90
2022-08-14T00:28:15.193Z,1.80
2022-08-14T00:30:45.324Z,1.70
2022-08-14T00:33:15.428Z,1.90
2022-08-14T00:36:35.422Z,1.80
2022-08-14T00:38:31.918Z,1.80
2022-08-14T00:40:59.243Z,1.73
2022-08-14T00:43:32.345Z,1.83
2022-08-14T00:46:05.272Z,1.90
2022-08-14T00:48:38.216Z,1.90
2022-08-14T00:51:08.961Z,2.00
2022-08-14T00:53:37.727Z,1.85
2022-08-14T00:56:08.550Z,1.70
2022-08-14T00:58:36.568Z,1.83
2022-08-14T01:01:14.546Z,2.03
2022-08-14T01:03:44.853Z,1.85
2022-08-14T01:06:18.530Z,1.80
2022-08-14T01:08:57.759Z,1.73
2022-08-14T01:11:31.493Z,1.73
2022-08-14T01:14:04.968Z,1.80
2022-08-14T01:16:53.076Z,1.90
2022-08-14T01:19:39.260Z,1.90
2022-08-14T01:22:12.638Z,1.90
2022-08-14T01:24:42.019Z,1.80
2022-08-14T01:27:20.535Z,2.17
2022-08-14T01:30:03.707Z,2.00
2022-08-14T01:32:35.396Z,1.90
2022-08-14T01:35:21.297Z,2.00
2022-08-14T01:37:56.882Z,1.73
2022-08-14T01:40:36.443Z,1.80
2022-08-14T01:43:18.813Z,1.40
2022-08-14T01:45:57.868Z,1.80
2022-08-14T01:48:37.062Z,2.20
2022-08-14T01:51:19.423Z,2.00
2022-08-14T01:53:54.776Z,1.80
2022-08-14T01:56:37.377Z,2.00
2022-08-14T01:59:10.224Z,1.83
2022-08-14T02:01:57.958Z,2.00
2022-08-14T02:04:56.089Z,1.80
2022-08-14T02:07:34.554Z,2.00
2022-08-14T02:10:13.048Z,2.00
2022-08-14T02:12:43.238Z,2.03
2022-08-14T02:15:11.438Z,2.08
2022-08-14T02:17:38.904Z,1.98
2022-08-14T02:20:08.544Z,2.10
2022-08-14T02:22:47.200Z,2.00
2022-08-14T02:25:16.652Z,2.10
2022-08-14T02:28:25.799Z,1.98
2022-08-14T02:30:33.724Z,2.10
2022-08-14T02:33:01.580Z,2.15
2022-08-14T02:35:32.750Z,1.90
2022-08-14T02:38:00.963Z,1.80
2022-08-14T02:40:33.906Z,2.00
2022-08-14T02:43:03.852Z,2.00
2022-08-14T02:45:38.747Z,1.90
2022-08-14T02:49:02.725Z,1.90
2022-08-14T02:51:00.722Z,2.03
2022-08-14T02:53:33.278Z,1.80
2022-08-14T02:56:04.639Z,1.90
2022-08-14T02:58:42.304Z,1.92
2022-08-14T03:01:10.676Z,2.10
2022-08-14T03:03:38.797Z,1.90
2022-08-14T03:06:08.955Z,2.20
2022-08-14T03:08:37.803Z,1.90
2022-08-14T03:11:09.440Z,2.00
2022-08-14T03:13:39.554Z,1.83
2022-08-14T03:16:09.276Z,2.30
2022-08-14T03:18:52.334Z,2.08
2022-08-14T03:21:21.507Z,1.90
2022-08-14T03:23:51.437Z,2.15
2022-08-14T03:26:30.172Z,2.10
2022-08-14T03:29:01.326Z,2.15
2022-08-14T03:31:29.455Z,1.98
2022-08-14T03:34:00.028Z,1.90
2022-08-14T03:37:50.798Z,2.17
2022-08-14T03:39:22.793Z,2.03
2022-08-14T03:41:59.802Z,2.28
2022-08-14T03:45:27.350Z,2.25
2022-08-14T03:47:15.688Z,1.90
2022-08-14T03:49:44.657Z,2.10
2022-08-14T03:52:27.796Z,2.20
2022-08-14T03:55:00.399Z,2.20
2022-08-14T03:57:32.855Z,2.42
2022-08-14T04:00:14.017Z,2.10
2022-08-14T04:03:01.047Z,1.90
2022-08-14T04:05:28.450Z,2.00
2022-08-14T04:08:23.193Z,2.20
2022-08-14T04:10:57.199Z,2.10
2022-08-14T04:13:24.109Z,2.13
2022-08-14T04:16:01.619Z,2.08
2022-08-14T04:18:30.401Z,2.20
2022-08-14T04:20:58.540Z,1.90
2022-08-14T04:23:29.419Z,2.10
2022-08-14T04:26:08.274Z,2.10
2022-08-14T04:29:06.890Z,2.20
2022-08-14T04:32:57.599Z,2.20
2022-08-14T04:34:24.033Z,2.17
2022-08-14T04:37:12.728Z,2.10
2022-08-14T04:39:58.859Z,2.30
2022-08-14T04:42:47.072Z,2.20
2022-08-14T04:45:23.634Z,2.00
2022-08-14T04:48:12.664Z,2.00
2022-08-14T04:50:54.094Z,2.10
2022-08-14T04:53:34.770Z,2.00
2022-08-14T04:56:10.442Z,1.90
2022-08-14T04:58:55.976Z,2.00
2022-08-14T05:01:23.306Z,2.20
2022-08-14T05:03:52.040Z,2.13
2022-08-14T05:06:37.569Z,2.10
2022-08-14T05:09:06.856Z,2.20
2022-08-14T05:11:36.645Z,2.00
2022-08-14T05:14:33.041Z,2.17
2022-08-14T05:16:52.145Z,2.00
2022-08-14T05:19:26.889Z,2.10
2022-08-14T05:22:16.110Z,2.15
2022-08-14T05:24:48.809Z,2.10
2022-08-14T05:27:23.363Z,2.08
2022-08-14T05:29:57.025Z,2.00
2022-08-14T05:32:27.525Z,1.92
2022-08-14T05:34:58.092Z,2.20
2022-08-14T05:37:27.204Z,2.38
2022-08-14T05:39:55.276Z,2.00
2022-08-14T05:42:29.270Z,2.10
2022-08-14T05:44:59.508Z,2.07
2022-08-14T05:47:29.108Z,2.07
2022-08-14T05:50:01.903Z,2.10
2022-08-14T05:52:38.448Z,2.00
2022-08-14T05:55:11.264Z,2.22
2022-08-14T05:57:54.691Z,2.10
2022-08-14T06:00:32.627Z,2.20
2022-08-14T06:03:06.974Z,2.10
2022-08-14T06:05:35.090Z,2.00
2022-08-14T06:08:08.616Z,2.10
2022-08-14T06:10:51.007Z,2.20
2022-08-14T06:13:19.149Z,1.98
2022-08-14T06:15:47.125Z,2.00
2022-08-14T06:18:17.473Z,2.40
2022-08-14T06:20:44.495Z,2.30
2022-08-14T06:23:13.160Z,2.20
2022-08-14T06:25:41.598Z,2.20
2022-08-14T06:28:23.371Z,2.10
2022-08-14T06:30:55.220Z,2.40
2022-08-14T06:33:22.664Z,2.40
2022-08-14T06:35:49.959Z,2.08
2022-08-14T06:38:23.323Z,2.30
2022-08-14T06:40:51.823Z,2.10
2022-08-14T06:43:20.858Z,2.08
2022-08-14T06:45:53.768Z,2.13
2022-08-14T06:48:25.369Z,2.10
2022-08-14T06:50:58.031Z,2.30
2022-08-14T06:53:27.667Z,2.40
2022-08-14T06:56:00.786Z,2.10
2022-08-14T06:58:31.453Z,2.10
2022-08-14T07:01:25.099Z,2.40
2022-08-14T07:04:22.690Z,2.38
2022-08-14T07:06:55.623Z,2.28
2022-08-14T07:09:27.951Z,1.75
2022-08-14T07:11:55.589Z,2.05
2022-08-14T07:14:23.307Z,2.10
2022-08-14T07:16:50.083Z,2.03
2022-08-14T07:19:20.771Z,2.10
2022-08-14T07:21:48.163Z,2.10
2022-08-14T07:24:21.432Z,2.00
2022-08-14T07:26:49.327Z,1.90
2022-08-14T07:29:17.720Z,1.80
2022-08-14T07:31:49.603Z,2.10
2022-08-14T07:34:36.682Z,2.00
2022-08-14T07:37:03.875Z,1.98
2022-08-14T07:39:30.715Z,1.92
2022-08-14T07:42:01.823Z,2.07
2022-08-14T07:44:35.959Z,1.90
2022-08-14T07:47:15.886Z,1.90
2022-08-14T07:49:55.429Z,2.08
2022-08-14T07:52:30.824Z,1.90
2022-08-14T07:54:57.811Z,2.00
2022-08-14T07:57:24.897Z,1.80
2022-08-14T07:59:52.191Z,1.70
2022-08-14T08:02:20.547Z,1.88
2022-08-14T08:04:59.301Z,1.90
2022-08-14T08:07:30.737Z,2.10
2022-08-14T08:10:00.959Z,1.80
2022-08-14T08:12:31.173Z,1.70
2022-08-14T08:15:03.435Z,1.88
2022-08-14T08:17:38.972Z,1.80
2022-08-14T08:20:16.814Z,1.90
2022-08-14T08:22:49.973Z,2.10
2022-08-14T08:25:24.736Z,1.65
2022-08-14T08:27:56.636Z,1.92
2022-08-14T08:30:23.867Z,2.00
2022-08-14T08:32:52.957Z,2.08
2022-08-14T08:35:22.245Z,2.10
2022-08-14T08:38:00.921Z,1.90
2022-08-14T08:40:35.793Z,1.60
2022-08-14T08:43:17.363Z,1.90
2022-08-14T08:45:44.238Z,2.13
2022-08-14T08:48:18.431Z,2.00
2022-08-14T08:51:01.622Z,2.00
2022-08-14T08:53:33.978Z,2.30
2022-08-14T08:56:01.403Z,2.17
2022-08-14T08:58:28.682Z,1.83
2022-08-14T09:00:58.631Z,1.73
2022-08-14T09:03:28.016Z,2.00
2022-08-14T09:05:59.140Z,1.90
2022-08-14T09:08:31.285Z,1.77
2022-08-14T09:11:19.035Z,1.90
2022-08-14T09:13:50.341Z,1.90
2022-08-14T09:16:25.297Z,2.10
2022-08-14T09:18:53.850Z,2.40
2022-08-14T09:21:24.387Z,1.90
2022-08-14T09:24:27.501Z,2.00
2022-08-14T09:26:42.412Z,1.80
2022-08-14T09:29:11.449Z,1.80
2022-08-14T09:31:53.147Z,2.00
2022-08-14T09:34:27.157Z,1.80
2022-08-14T09:37:23.452Z,1.83
2022-08-14T09:39:57.697Z,1.80
2022-08-14T09:42:36.267Z,1.80
2022-08-14T09:45:16.648Z,1.80
2022-08-14T09:47:55.796Z,2.17
2022-08-14T09:50:33.779Z,1.70
2022-08-14T09:53:04.564Z,1.93
2022-08-14T09:55:41.491Z,1.90
2022-08-14T09:58:19.466Z,1.90
2022-08-14T10:00:52.752Z,1.98
2022-08-14T10:03:34.519Z,2.00
2022-08-14T10:06:05.211Z,1.70
2022-08-14T10:08:51.253Z,2.00
2022-08-14T10:11:23.181Z,1.80
2022-08-14T10:13:55.859Z,1.98
2022-08-14T10:16:33.239Z,1.90
2022-08-14T10:19:13.306Z,2.00
2022-08-14T10:23:13.090Z,1.90
2022-08-14T10:24:59.670Z,2.05
2022-08-14T10:27:27.385Z,2.10
2022-08-14T10:29:59.840Z,1.70
2022-08-14T10:32:28.630Z,1.80
2022-08-14T10:35:14.422Z,1.70
2022-08-14T10:37:52.217Z,1.90
2022-08-14T10:40:44.163Z,1.80
2022-08-14T10:43:23.094Z,1.73
2022-08-14T10:46:03.987Z,2.10
2022-08-14T10:48:45.708Z,1.70
2022-08-14T10:51:23.978Z,1.80
2022-08-14T10:53:56.710Z,2.00
2022-08-14T10:56:34.969Z,2.00
2022-08-14T10:59:04.105Z,1.80
2022-08-14T11:01:40.956Z,2.10
2022-08-14T11:04:26.011Z,1.80
2022-08-14T11:06:56.559Z,2.30
2022-08-14T11:09:23.727Z,2.40
2022-08-14T11:12:33.927Z,2.20
2022-08-14T11:15:02.507Z,2.50
2022-08-14T11:17:32.152Z,2.40
2022-08-14T11:20:01.352Z,2.20
2022-08-14T11:23:03.017Z,2.20
2022-08-14T11:25:20.384Z,2.53
2022-08-14T11:27:49.506Z,2.40
2022-08-14T11:30:50.594Z,2.60
2022-08-14T11:33:07.635Z,2.70
2022-08-14T11:35:47.356Z,2.60
2022-08-14T11:38:16.990Z,3.10
2022-08-14T11:40:46.788Z,2.97
2022-08-14T11:43:15.392Z,2.50
2022-08-14T11:45:47.766Z,3.33
2022-08-14T11:48:59.733Z,3.40
2022-08-14T11:51:24.091Z,3.60
2022-08-14T11:54:02.220Z,4.10
2022-08-14T11:56:41.197Z,4.50
2022-08-14T11:59:14.868Z,4.53
2022-08-14T12:01:41.766Z,4.38
2022-08-14T12:04:33.122Z,4.60
2022-08-14T12:07:01.691Z,4.50
2022-08-14T12:09:34.216Z,4.70
2022-08-14T12:12:12.872Z,4.88
2022-08-14T12:14:56.326Z,4.70
2022-08-14T12:17:25.115Z,4.90
2022-08-14T12:20:00.617Z,5.30
2022-08-14T12:22:42.389Z,4.82
2022-08-14T12:25:13.241Z,5.13
2022-08-14T12:27:54.076Z,5.50
2022-08-14T12:30:35.952Z,5.18
2022-08-14T12:33:08.420Z,4.90
2022-08-14T12:35:43.196Z,4.95
2022-08-14T12:38:21.000Z,4.80
2022-08-14T12:40:51.011Z,4.70
2022-08-14T12:43:19.786Z,4.90
2022-08-14T12:45:55.197Z,4.97
2022-08-14T12:48:32.041Z,5.00
2022-08-14T12:51:00.013Z,5.00
2022-08-14T12:53:39.853Z,5.30
2022-08-14T12:56:21.490Z,5.30
2022-08-14T12:58:57.606Z,4.97
2022-08-14T13:01:27.553Z,5.20
2022-08-14T13:04:12.520Z,5.50
2022-08-14T13:06:50.900Z,5.20
2022-08-14T13:09:21.197Z,5.40
2022-08-14T13:11:58.890Z,5.57
2022-08-14T13:14:43.874Z,5.28
2022-08-14T13:17:11.638Z,5.30
2022-08-14T13:19:40.598Z,3.70
2022-08-14T13:22:10.258Z,3.90
2022-08-14T13:24:47.879Z,3.70
2022-08-14T13:27:15.743Z,3.40
2022-08-14T13:29:47.362Z,3.25
2022-08-14T13:32:15.198Z,3.10
2022-08-14T13:34:45.493Z,2.90
2022-08-14T13:37:18.597Z,2.78
2022-08-14T13:39:56.579Z,2.50
2022-08-14T13:42:30.793Z,2.60
2022-08-14T13:45:01.318Z,2.60
2022-08-14T13:47:30.298Z,2.58
2022-08-14T13:50:00.466Z,2.55
2022-08-14T13:52:51.898Z,2.40
2022-08-14T13:55:23.524Z,2.30
2022-08-14T13:58:02.939Z,2.70
2022-08-14T14:00:35.665Z,2.50
2022-08-14T14:03:08.635Z,2.80
2022-08-14T14:05:53.283Z,2.70
2022-08-14T14:08:46.748Z,2.37
2022-08-14T14:11:16.258Z,2.33
2022-08-14T14:13:46.008Z,2.30
2022-08-14T14:16:21.852Z,2.42
2022-08-14T14:18:56.425Z,2.50
2022-08-14T14:21:28.511Z,2.30
2022-08-14T14:23:56.302Z,2.60
2022-08-14T14:26:24.984Z,2.30
2022-08-14T14:28:56.958Z,2.22
2022-08-14T14:31:30.117Z,2.55
2022-08-14T14:34:07.428Z,2.40
2022-08-14T14:36:52.558Z,2.40
2022-08-14T14:39:27.317Z,2.40
2022-08-14T14:41:59.641Z,2.10
2022-08-14T14:44:40.565Z,2.47
2022-08-14T14:47:12.460Z,2.40
2022-08-14T14:49:50.989Z,2.30
2022-08-14T14:52:27.264Z,2.50
2022-08-14T14:54:59.426Z,2.37
2022-08-14T14:57:35.982Z,2.40
2022-08-14T15:00:21.136Z,2.30
2022-08-14T15:02:52.091Z,2.40
2022-08-14T15:05:20.079Z,2.50
2022-08-14T15:07:49.383Z,2.50
2022-08-14T15:10:27.739Z,2.13
2022-08-14T15:13:04.249Z,2.25
2022-08-14T15:15:37.263Z,2.22
2022-08-14T15:18:36.414Z,2.40
2022-08-14T15:20:56.621Z,2.20
2022-08-14T15:23:25.084Z,2.05
2022-08-14T15:26:00.165Z,2.15
2022-08-14T15:28:29.658Z,2.30
2022-08-14T15:31:05.929Z,2.60
2022-08-14T15:34:13.272Z,2.53
2022-08-14T15:36:45.679Z,2.50
2022-08-14T15:39:13.496Z,2.40
2022-08-14T15:41:42.164Z,2.50
2022-08-14T15:44:25.605Z,3.00
2022-08-14T15:46:54.752Z,2.75
2022-08-14T15:49:24.415Z,2.80
2022-08-14T15:52:00.307Z,2.40
2022-08-14T15:54:31.244Z,2.80
2022-08-14T15:57:10.479Z,2.70
2022-08-14T15:59:58.506Z,3.00
2022-08-14T16:02:27.837Z,2.80
2022-08-14T16:04:55.591Z,3.00
2022-08-14T16:07:25.178Z,2.95
2022-08-14T16:10:11.915Z,2.70
2022-08-14T16:12:54.618Z,2.83
2022-08-14T16:15:22.478Z,3.10
2022-08-14T16:17:52.923Z,2.75
2022-08-14T16:20:41.021Z,2.90
2022-08-14T16:23:11.661Z,3.40
2022-08-14T16:25:42.172Z,2.80
2022-08-14T16:28:10.340Z,3.30
2022-08-14T16:30:54.329Z,2.93
2022-08-14T16:33:28.000Z,3.33
2022-08-14T16:36:30.302Z,3.42
2022-08-14T16:38:58.468Z,3.03
2022-08-14T16:41:27.540Z,2.70
2022-08-14T16:43:59.200Z,2.80
2022-08-14T16:46:28.105Z,3.03
2022-08-14T16:48:58.480Z,2.90
2022-08-14T16:51:30.904Z,3.00
2022-08-14T16:54:03.883Z,2.55
2022-08-14T16:56:48.112Z,3.20
2022-08-14T16:59:20.720Z,2.88
2022-08-14T17:02:01.469Z,2.72
2022-08-14T17:04:34.715Z,3.20
2022-08-14T17:07:11.792Z,3.20
2022-08-14T17:09:48.972Z,3.20
2022-08-14T17:12:33.651Z,3.30
2022-08-14T17:15:14.980Z,2.80
2022-08-14T17:17:57.950Z,3.10
2022-08-14T17:20:53.902Z,3.25
2022-08-14T17:23:14.867Z,3.20
2022-08-14T17:25:50.781Z,3.30
2022-08-14T17:28:51.916Z,3.40
2022-08-14T17:31:12.292Z,3.60
2022-08-14T17:33:44.658Z,3.03
2022-08-14T17:36:24.196Z,3.20
2022-08-14T17:39:11.989Z,2.80
2022-08-14T17:42:01.751Z,3.30
2022-08-14T17:44:44.864Z,3.05
2022-08-14T17:47:14.773Z,2.95
2022-08-14T17:49:51.893Z,3.15
2022-08-14T17:52:36.431Z,3.20
2022-08-14T17:56:02.534Z,3.28
2022-08-14T17:58:01.400Z,3.15
2022-08-14T18:00:50.050Z,3.10
2022-08-14T18:03:18.624Z,3.05
2022-08-14T18:06:09.915Z,3.38
2022-08-14T18:08:56.749Z,3.10
2022-08-14T18:11:26.268Z,3.00
2022-08-14T18:14:31.667Z,3.38
2022-08-14T18:17:02.223Z,2.70
2022-08-14T18:19:31.121Z,3.08
2022-08-14T18:22:05.559Z,2.70
2022-08-14T18:24:51.154Z,2.70
2022-08-14T18:27:22.763Z,2.75
2022-08-14T18:29:58.776Z,2.90
2022-08-14T18:32:31.426Z,3.23
2022-08-14T18:35:11.171Z,3.28
2022-08-14T18:37:41.797Z,2.90
2022-08-14T18:40:34.667Z,3.00
2022-08-14T18:43:03.664Z,4.10
2022-08-14T18:45:42.905Z,2.80
2022-08-14T18:48:19.759Z,3.40
2022-08-14T18:50:53.036Z,3.10
2022-08-14T18:53:24.402Z,3.20
2022-08-14T18:56:09.522Z,2.83
2022-08-14T18:58:57.009Z,2.80
2022-08-14T19:01:29.989Z,3.00
2022-08-14T19:03:59.656Z,2.80
2022-08-14T19:06:38.324Z,2.60
2022-08-14T19:09:05.689Z,2.53
2022-08-14T19:11:32.672Z,2.92
2022-08-14T19:14:04.620Z,2.80
2022-08-14T19:16:37.266Z,2.78
2022-08-14T19:19:11.584Z,2.40
2022-08-14T19:21:41.047Z,2.55
2022-08-14T19:24:27.448Z,2.50
2022-08-14T19:27:18.996Z,2.50
2022-08-14T19:29:47.815Z,2.72
2022-08-14T19:32:39.420Z,2.45
2022-08-14T19:35:48.981Z,2.50
2022-08-14T19:38:44.918Z,2.40
2022-08-14T19:41:16.691Z,2.40
2022-08-14T19:43:56.046Z,2.60
2022-08-14T19:46:38.516Z,2.38
2022-08-14T19:49:23.160Z,2.35
2022-08-14T19:52:02.493Z,2.70
2022-08-14T19:54:35.116Z,2.72
2022-08-14T19:57:04.618Z,2.28
2022-08-14T19:59:36.843Z,2.60
2022-08-14T20:02:29.907Z,2.30
2022-08-14T20:05:03.001Z,2.60
2022-08-14T20:07:58.863Z,2.80
2022-08-14T20:11:03.516Z,2.80
2022-08-14T20:13:14.432Z,2.50
2022-08-14T20:15:51.052Z,2.58
2022-08-14T20:18:50.216Z,2.58
2022-08-14T20:21:13.826Z,2.70
2022-08-14T20:23:41.834Z,2.30
2022-08-14T20:26:31.149Z,2.60
2022-08-14T20:29:05.015Z,2.67
2022-08-14T20:31:36.929Z,2.45
2022-08-14T20:34:24.270Z,2.50
2022-08-14T20:37:10.300Z,2.58
2022-08-14T20:39:54.760Z,2.40
2022-08-14T20:42:43.915Z,2.50
2022-08-14T20:45:19.729Z,2.70
2022-08-14T20:48:01.064Z,2.97
2022-08-14T20:50:30.465Z,2.70
2022-08-14T20:52:59.986Z,2.60
2022-08-14T20:55:35.117Z,2.35
2022-08-14T20:58:10.022Z,2.60
2022-08-14T21:01:20.638Z,2.50
2022-08-14T21:03:58.405Z,2.60
2022-08-14T21:07:23.036Z,2.85
2022-08-14T21:09:21.191Z,2.60
2022-08-14T21:12:08.305Z,2.50
2022-08-14T21:14:55.343Z,2.70
2022-08-14T21:17:27.405Z,2.50
2022-08-14T21:19:54.530Z,2.33
2022-08-14T21:22:21.559Z,2.55
2022-08-14T21:24:48.482Z,2.63
2022-08-14T21:27:20.174Z,2.33
2022-08-14T21:29:54.227Z,2.70
2022-08-14T21:32:46.806Z,2.60
2022-08-14T21:35:17.080Z,2.50
2022-08-14T21:37:45.402Z,2.30
2022-08-14T21:40:41.206Z,2.60
2022-08-14T21:43:02.576Z,2.60
2022-08-14T21:45:35.685Z,2.50
2022-08-14T21:48:09.195Z,2.20
2022-08-14T21:51:00.697Z,2.38
2022-08-14T21:53:32.876Z,2.65
2022-08-14T21:56:03.391Z,2.63
2022-08-14T21:58:54.365Z,2.45
2022-08-14T22:01:20.328Z,2.60
2022-08-14T22:03:55.119Z,2.88
2022-08-14T22:06:28.897Z,2.50
2022-08-14T22:08:58.505Z,2.42
2022-08-14T22:11:25.947Z,2.60
2022-08-14T22:13:55.940Z,2.70
2022-08-14T22:17:02.021Z,2.53
2022-08-14T22:19:13.652Z,2.50
2022-08-14T22:21:44.084Z,2.33
2022-08-14T22:24:38.156Z,2.53
2022-08-14T22:27:04.699Z,2.50
2022-08-14T22:29:34.497Z,2.40
2022-08-14T22:32:07.034Z,2.33
2022-08-14T22:34:34.324Z,2.80
2022-08-14T22:37:02.033Z,2.50
2022-08-14T22:40:17.084Z,2.40
2022-08-14T22:42:21.272Z,2.40
2022-08-14T22:44:51.233Z,2.70
2022-08-14T22:47:25.106Z,2.38
2022-08-14T22:50:30.757Z,2.60
2022-08-14T22:52:40.069Z,2.40
2022-08-14T22:55:08.108Z,2.40
2022-08-14T22:57:37.756Z,2.70
2022-08-14T23:00:29.997Z,2.40
2022-08-14T23:03:00.564Z,2.60
2022-08-14T23:05:40.126Z,2.40
2022-08-14T23:08:57.535Z,2.58
2022-08-14T23:11:07.214Z,2.80
2022-08-14T23:13:34.083Z,2.55
2022-08-14T23:16:00.887Z,2.10
2022-08-14T23:18:29.447Z,2.00
2022-08-14T23:20:57.152Z,2.20
2022-08-14T23:23:24.651Z,1.90
2022-08-14T23:25:59.395Z,2.10
2022-08-14T23:28:34.762Z,1.80
2022-08-14T23:31:35.032Z,2.17
2022-08-14T23:34:20.465Z,2.10
2022-08-14T23:36:55.396Z,2.75
2022-08-14T23:39:32.124Z,2.47
2022-08-14T23:42:05.907Z,2.30
2022-08-14T23:44:37.622Z,2.42
2022-08-14T23:47:11.766Z,2.80
2022-08-14T23:50:03.551Z,2.67
2022-08-14T23:52:51.049Z,2.30
2022-08-14T23:55:28.343Z,2.58
2022-08-14T23:57:58.485Z,2.50
